• Join FlightAware (Why Join?)
  • Login
  • US Flag 
12:39PM EDT


 

Airport Tracker/Info


-or-


 

Live Flight TrackerFlight Track Log ✈ AAL2218 ✈ 01-Apr-2013 ✈ KGUC - KDFW

Flight Track Log - Related Links

Times and Time Zones

All times are in EDT time to prevent confusion due to time zone crossing. See the AAL2218 flight status page for this flight to view local times or setup timezone preferences in your user account.

Time Position Orientation Groundspeed Altitude Reporting Facility
EDT Latitude Longitude Course Direction KTS MPH feet Rate Location/Type
05:36PM 38.0678 -105.8735 124° Southeast  Level FlightAware Approximate
05:37PM 38.0009 -105.7493 124° Southeast  Level FlightAware Approximate
05:38PM 37.9405 -105.6201 119° Southeast  Level FlightAware Approximate
05:39PM 37.8845 -105.4916 118° Southeast  Level FlightAware Approximate
05:40PM 37.8272 -105.3842 127° Southeast  Level FlightAware Approximate
05:41PM 37.7808 -105.2710 120° Southeast  Level FlightAware Approximate
05:42PM 37.7294 -105.1588 122° Southeast  Level FlightAware Approximate
05:43PM 37.6747 -105.0492 122° Southeast  Level FlightAware Approximate
05:43PM 38.4219 -106.9108 122° Southeast 371 427 19,200  Level Denver Center
05:44PM 37.6199 -104.9397 122° Southeast  Level FlightAware Approximate
05:44PM 38.3781 -106.7939 116° Southeast 369 425 22,200  Level Denver Center
05:45PM 37.5664 -104.8292 121° Southeast  Level FlightAware Approximate
05:45PM 38.3206 -106.6656 120° Southeast 388 447 24,100  Level Denver Center
05:46PM 37.5137 -104.7183 121° Southeast  Level FlightAware Approximate
05:46PM 38.2625 -106.5336 119° Southeast 448 516 25,200  Level Denver Center
05:47PM 37.4608 -104.6075 121° Southeast  Level FlightAware Approximate
05:47PM 38.1989 -106.3864 119° Southeast 485 558 27,000  Level Denver Center
05:48PM 37.4071 -104.4975 122° Southeast  Level FlightAware Approximate
05:48PM 38.1311 -106.2353 120° Southeast 493 567 28,800  Level Denver Center
05:49PM 38.0478 -106.0447 119° Southeast 515 593 30,700 1,020 Climbing Denver Center
05:50PM 37.9786 -105.8911 120° Southeast 523 602 31,000 120 Climbing Denver Center
05:51PM 37.8981 -105.7131 120° Southeast 521 600 31,000 480 Level Denver Center
05:52PM 37.8283 -105.5614 120° Southeast 520 598 32,000 1,200 Climbing Denver Center
05:53PM 37.7597 -105.4089 120° Southeast 524 603 33,600 2,040 Climbing Denver Center
05:54PM 37.6797 -105.2322 120° Southeast 520 598 36,200 1,620 Climbing Denver Center
05:55PM 37.6122 -105.0858 120° Southeast 508 585 37,000 1,200 Climbing Denver Center
05:56PM 37.5328 -104.9125 120° Southeast 512 589 38,700 960 Climbing Denver Center
05:58PM 37.4653 -104.7689 121° Southeast 502 578 39,000 120 Climbing Denver Center
05:59PM 37.3856 -104.5981 120° Southeast 507 583 39,000  Level Denver Center
06:00PM 37.3183 -104.4547 120° Southeast 503 579 39,000  Level Denver Center
06:01PM 37.2389 -104.2856 120° Southeast 506 582 39,000  Level Denver Center
06:02PM 37.1708 -104.1411 121° Southeast 507 583 39,000  Level Denver Center
06:03PM 37.1028 -103.9950 120° Southeast 507 583 39,000  Level Albuquerque Center
06:04PM 37.0333 -103.8525 121° Southeast 505 581 39,000  Level Albuquerque Center
06:05PM 36.9528 -103.6847 121° Southeast 505 581 39,000  Level Albuquerque Center
06:06PM 36.8831 -103.5408 121° Southeast 507 583 39,000  Level Albuquerque Center
06:07PM 36.8019 -103.3725 121° Southeast 507 583 39,000  Level Albuquerque Center
06:08PM 36.7314 -103.2294 122° Southeast 507 583 39,000  Level Albuquerque Center
06:09PM 36.6503 -103.0622 121° Southeast 505 581 39,000  Level Albuquerque Center
06:10PM 36.5803 -102.9197 121° Southeast 507 583 39,000  Level Albuquerque Center
06:11PM 36.5064 -102.7686 121° Southeast 511 588 39,000  Level Albuquerque Center
06:12PM 36.4311 -102.6197 122° Southeast 510 587 39,000  Level Albuquerque Center
06:13PM 36.3578 -102.4681 121° Southeast 512 589 39,000  Level Albuquerque Center
06:14PM 36.2672 -102.2889 122° Southeast 512 589 39,000  Level Albuquerque Center
06:15PM 36.1931 -102.1392 122° Southeast 511 588 39,000  Level Albuquerque Center
06:16PM 36.1161 -101.9875 122° Southeast 515 593 39,000  Level Albuquerque Center
06:17PM 36.0400 -101.8369 122° Southeast 516 594 39,000  Level Albuquerque Center
06:18PM 35.9633 -101.6867 122° Southeast 516 594 39,000  Level Albuquerque Center
06:19PM 35.8858 -101.5358 122° Southeast 517 595 39,000  Level Albuquerque Center
06:20PM 35.8083 -101.3844 122° Southeast 519 597 39,000  Level Albuquerque Center
06:21PM 35.7042 -101.2167 127° Southeast 514 592 39,000  Level Albuquerque Center
06:22PM 35.6158 -101.0794 128° Southeast 508 585 39,000  Level Albuquerque Center
06:23PM 35.5294 -100.9417 128° Southeast 508 585 39,000  Level Albuquerque Center
06:24PM 35.4456 -100.8036 127° Southeast 505 581 39,000  Level Albuquerque Center
06:25PM 35.3608 -100.6653 127° Southeast 505 581 39,000  Level Albuquerque Center
06:26PM 35.2800 -100.5325 127° Southeast 505 581 39,000  Level Albuquerque Center
06:27PM 35.1967 -100.3978 127° Southeast 500 575 39,000  Level Albuquerque Center
06:28PM 35.0953 -100.2350 127° Southeast 500 575 39,000  Level Albuquerque Center
06:29PM 35.0097 -100.0997 128° Southeast 503 579 39,000  Level Albuquerque Center
06:30PM 34.9261 -99.9644 127° Southeast 501 577 39,000  Level Albuquerque Center
06:31PM 34.8567 -99.8603 129° Southeast 502 578 39,000  Level Fort Worth Center
06:32PM 34.7717 -99.7264 128° Southeast 497 572 39,000 -120 Level Fort Worth Center
06:33PM 34.6883 -99.5928 127° Southeast 497 572 38,800 -720 Descending Fort Worth Center
06:34PM 34.6031 -99.4569 127° Southeast 497 572 37,600 -1,200 Descending Fort Worth Center
06:35PM 34.5175 -99.3239 128° Southeast 497 572 36,500 -1,200 Descending Fort Worth Center
06:36PM 34.4278 -99.1836 128° Southeast 490 564 35,300 -1,500 Descending Fort Worth Center
06:37PM 34.3461 -99.0586 128° Southeast 482 555 33,600 1,800 Descending Fort Worth Center
06:38PM 34.2622 -98.9339 129° Southeast 475 547 39,000 -1,920 Climbing Fort Worth Center
06:39PM 34.1803 -98.8017 127° Southeast 480 552 29,800 -6,060 Descending Fort Worth Center
06:40PM 34.0939 -98.6725 129° Southeast 487 560 26,900 -2,100 Descending Fort Worth Center
06:41PM 34.0117 -98.5436 128° Southeast 488 562 25,600 -1,500 Descending Fort Worth Center
06:42PM 33.9375 -98.4250 127° Southeast 453 521 23,900 -1,800 Descending Fort Worth Center
06:43PM 33.8611 -98.3114 129° Southeast 435 501 22,000 -1,680 Descending Fort Worth Center
06:44PM 33.7950 -98.2133 129° Southeast 435 501 20,600 -1,680 Descending Fort Worth Center
06:45PM 33.7247 -98.1053 128° Southeast 424 488 18,700 -2,220 Descending Fort Worth Center
06:46PM 33.6522 -98.0047 131° Southeast 407 468 16,200 -2,280 Descending Fort Worth Center
06:47PM 33.5797 -97.9072 132° Southeast 399 459 14,200 -2,100 Descending Fort Worth Center
06:48PM 33.4986 -97.8019 133° Southeast 393 452 12,100 -1,920 Descending Fort Worth Center
06:49PM 33.4403 -97.7197 130° Southeast 371 427 10,400 -1,200 Descending Fort Worth Center
06:50PM 33.3758 -97.6325 131° Southeast 329 379 9,800 -960 Descending Fort Worth Center
06:51PM 33.3258 -97.5528 127° Southeast 308 354 8,500 -1,320 Descending Fort Worth Center
06:52PM 33.2864 -97.4831 124° Southeast 288 331 7,200 -1,320 Descending Fort Worth Center
06:53PM 33.2383 -97.4011 125° Southeast 283 326 5,900 -1,140 Descending Fort Worth Center
06:54PM 33.2008 -97.3364 125° Southeast 273 314 5,000 -480 Descending Fort Worth Center
06:55PM 33.1569 -97.2619 125° Southeast 263 303 5,000  Level Fort Worth Center
06:56PM 33.1233 -97.2000 123° Southeast 253 291 5,000 -360 Level Fort Worth Center
06:57PM 33.0836 -97.1333 125° Southeast 237 273 4,300 -720 Descending Fort Worth Center
06:58PM 33.0667 -97.1000 121° Southeast 216 249 4,000 -600 Descending Dallas / Fort Worth TRACON